Time;durP1;ratioP1;P1;durP2;ratioP2;P2;SDS_P1;SDS_P2;PMS_P1;PMS_P2;Temp;Humidity;BMP_temperature;BMP_pressure;BME280_temperature;BME280_humidity;BME280_pressure;Samples;Min_cycle;Max_cycle;Signal;HPM_P1;HPM_P2
2024/02/29 00:04:04;;;;;;;13.60;9.60;;;;;;;6.42;100.00;100035.24;451740;1252;139206;-68
2024/02/29 00:14:11;;;;;;;13.20;9.40;;;;;;;6.34;100.00;100036.74;451632;1252;140112;-69
2024/02/29 00:24:17;;;;;;;13.40;10.40;;;;;;;6.29;100.00;100036.42;451546;1253;139342;-69
2024/02/29 00:34:24;;;;;;;13.80;9.70;;;;;;;6.27;100.00;100041.73;451773;1253;140565;-69
2024/02/29 00:44:30;;;;;;;13.60;11.10;;;;;;;6.26;100.00;100041.04;451704;1252;140220;-68
2024/02/29 00:54:36;;;;;;;13.60;10.20;;;;;;;6.23;100.00;100038.21;451645;1253;140013;-69
2024/02/29 01:04:42;;;;;;;18.10;12.80;;;;;;;6.12;100.00;100028.40;451727;1252;139978;-69
2024/02/29 01:14:48;;;;;;;20.20;13.50;;;;;;;6.04;100.00;100020.67;451695;1252;139519;-70
2024/02/29 01:24:54;;;;;;;18.30;12.80;;;;;;;6.04;100.00;100025.55;451649;1252;139785;-71
2024/02/29 01:35:00;;;;;;;17.40;12.40;;;;;;;6.01;100.00;100029.31;451584;1252;140483;-68
2024/02/29 01:45:08;;;;;;;17.40;12.30;;;;;;;5.99;100.00;100026.23;451761;1252;139774;-68
2024/02/29 01:55:15;;;;;;;15.60;12.30;;;;;;;5.95;100.00;100021.71;451650;1253;140171;-70
2024/02/29 02:05:21;;;;;;;20.00;15.00;;;;;;;5.92;100.00;100024.06;451624;1254;140136;-69
2024/02/29 02:15:27;;;;;;;18.20;13.80;;;;;;;5.87;100.00;100023.52;451778;1252;140427;-69
2024/02/29 02:25:33;;;;;;;18.00;14.00;;;;;;;5.89;100.00;100012.17;451718;1253;139835;-71
2024/02/29 02:35:39;;;;;;;19.20;12.30;;;;;;;5.89;100.00;100019.84;451709;1253;139976;-71
2024/02/29 02:45:45;;;;;;;21.00;16.10;;;;;;;5.89;100.00;100014.45;451628;1253;139634;-70
2024/02/29 02:55:51;;;;;;;23.50;15.60;;;;;;;5.87;100.00;100003.22;451719;1253;141491;-69
2024/02/29 03:05:57;;;;;;;21.90;15.20;;;;;;;5.86;100.00;100002.36;451801;1253;140433;-70
2024/02/29 03:16:03;;;;;;;20.00;15.50;;;;;;;5.88;100.00;99998.48;451789;1253;139671;-70
2024/02/29 03:26:10;;;;;;;25.00;16.70;;;;;;;5.89;100.00;99997.40;451720;1252;139791;-71
2024/02/29 03:36:18;;;;;;;18.20;15.10;;;;;;;5.92;100.00;99997.83;451740;1256;139914;-70
2024/02/29 03:46:24;;;;;;;18.80;13.90;;;;;;;5.93;100.00;99988.41;451843;1253;140045;-69
2024/02/29 03:56:30;;;;;;;25.60;15.80;;;;;;;5.94;100.00;99986.98;451668;1253;139417;-67
2024/02/29 04:06:36;;;;;;;18.80;12.80;;;;;;;5.94;100.00;99978.98;451780;1253;139254;-71
2024/02/29 04:16:44;;;;;;;18.00;13.40;;;;;;;5.89;100.00;99973.80;452093;1253;139280;-71
2024/02/29 04:26:50;;;;;;;24.80;17.50;;;;;;;5.91;100.00;99973.02;451655;1253;139567;-68
2024/02/29 04:36:56;;;;;;;27.50;17.50;;;;;;;5.92;100.00;99969.70;451647;1254;139730;-68
2024/02/29 04:47:03;;;;;;;20.50;14.70;;;;;;;5.89;100.00;99973.41;451569;1254;140220;-67
2024/02/29 04:57:09;;;;;;;15.30;12.10;;;;;;;5.88;100.00;99975.37;451734;1253;139606;-67
2024/02/29 05:07:15;;;;;;;15.30;12.20;;;;;;;5.77;100.00;99975.62;451635;1256;139342;-69
2024/02/29 05:17:22;;;;;;;18.10;13.20;;;;;;;5.72;100.00;99977.20;451669;1253;140544;-71
2024/02/29 05:27:29;;;;;;;15.70;11.30;;;;;;;5.71;100.00;99979.99;451799;1253;139367;-70
2024/02/29 05:37:36;;;;;;;22.20;14.90;;;;;;;5.75;100.00;99985.45;451772;1253;140918;-69
2024/02/29 05:47:42;;;;;;;22.20;14.70;;;;;;;5.76;100.00;99984.02;451598;1253;139423;-69
2024/02/29 05:57:48;;;;;;;23.10;16.70;;;;;;;5.70;100.00;99984.05;451827;1255;139221;-71
2024/02/29 06:07:54;;;;;;;20.60;14.80;;;;;;;5.69;100.00;99987.20;451707;1256;139727;-71
2024/02/29 06:18:02;;;;;;;23.30;16.00;;;;;;;5.68;100.00;99993.33;451651;1253;141738;-71
2024/02/29 06:28:09;;;;;;;19.60;14.20;;;;;;;5.65;100.00;99994.48;451749;1253;139243;-72
2024/02/29 06:38:15;;;;;;;19.00;15.10;;;;;;;5.70;100.00;99998.80;451727;1253;141173;-80
2024/02/29 06:48:21;;;;;;;18.60;13.60;;;;;;;5.68;100.00;100005.13;451761;1253;387717;-78
2024/02/29 06:58:28;;;;;;;20.60;13.30;;;;;;;5.70;100.00;100010.63;451807;1253;140324;-64
2024/02/29 07:08:35;;;;;;;33.10;18.50;;;;;;;5.71;100.00;100004.52;451692;1254;140464;-63
2024/02/29 07:18:39;;;;;;;;;;;;;;;5.61;100.00;100010.95;451650;1253;139607;-62
2024/02/29 07:28:45;;;;;;;38.30;19.20;;;;;;;5.50;100.00;100006.85;451752;1254;126237;-62
2024/02/29 07:38:52;;;;;;;27.20;16.60;;;;;;;5.47;100.00;100005.02;451621;1254;139494;-64
2024/02/29 07:48:58;;;;;;;27.50;16.20;;;;;;;5.56;100.00;100000.20;451610;1254;140332;-60
2024/02/29 07:59:04;;;;;;;24.80;14.00;;;;;;;5.72;100.00;100000.66;451629;1254;139621;-60
2024/02/29 08:09:10;;;;;;;24.30;15.00;;;;;;;5.88;100.00;100000.58;451743;1253;139431;-73
2024/02/29 08:19:16;;;;;;;21.60;16.20;;;;;;;6.05;100.00;100001.02;451663;1255;140151;-64
2024/02/29 08:29:22;;;;;;;20.50;14.70;;;;;;;6.18;100.00;99999.33;451544;1254;139449;-60
2024/02/29 08:39:29;;;;;;;18.50;13.60;;;;;;;6.23;100.00;100002.39;451689;1253;139725;-63
2024/02/29 08:49:35;;;;;;;23.20;18.00;;;;;;;6.41;100.00;99991.27;451590;1253;140187;-66
2024/02/29 08:59:41;;;;;;;22.70;15.50;;;;;;;6.60;100.00;99991.02;451644;1254;139497;-71
2024/02/29 09:09:47;;;;;;;20.00;14.90;;;;;;;6.68;100.00;99991.38;451705;1254;139381;-61
2024/02/29 09:19:53;;;;;;;19.30;13.10;;;;;;;6.69;100.00;99989.08;451552;1254;139805;-62
2024/02/29 09:29:59;;;;;;;18.50;14.60;;;;;;;6.71;100.00;99984.64;451633;1254;139358;-59
2024/02/29 09:40:06;;;;;;;18.70;14.30;;;;;;;6.86;100.00;99979.87;451520;1253;139414;-64
2024/02/29 09:50:12;;;;;;;17.80;14.70;;;;;;;6.92;100.00;99975.96;451657;1254;139289;-60
2024/02/29 10:00:21;;;;;;;17.20;12.80;;;;;;;6.95;100.00;99971.48;451741;1253;140805;-60
2024/02/29 10:10:27;;;;;;;20.10;14.10;;;;;;;7.07;100.00;99969.75;451663;1252;140132;-64
2024/02/29 10:20:33;;;;;;;17.80;14.70;;;;;;;7.17;100.00;99956.27;451604;1252;140029;-63
2024/02/29 10:30:40;;;;;;;17.40;14.30;;;;;;;7.45;100.00;99943.17;451628;1254;139243;-60
2024/02/29 10:40:48;;;;;;;16.80;14.30;;;;;;;7.84;100.00;99931.30;451612;1254;139718;-59
2024/02/29 10:51:00;;;;;;;16.60;12.90;;;;;;;7.93;100.00;99916.21;451584;1253;140013;-61
2024/02/29 11:01:07;;;;;;;17.30;13.30;;;;;;;8.01;100.00;99895.95;451710;1252;139240;-61
2024/02/29 11:11:14;;;;;;;16.40;14.50;;;;;;;8.18;100.00;99888.56;451785;1254;139733;-62
2024/02/29 11:21:29;;;;;;;17.30;14.60;;;;;;;8.46;100.00;99872.85;451728;1253;139386;-75
2024/02/29 11:31:44;;;;;;;20.10;16.30;;;;;;;8.60;100.00;99861.90;451672;1252;140370;-70
2024/02/29 11:41:50;;;;;;;18.10;15.20;;;;;;;8.66;100.00;99846.55;451754;1253;139240;-65
2024/02/29 11:51:57;;;;;;;20.00;14.70;;;;;;;8.76;100.00;99837.15;451631;1252;140409;-62
2024/02/29 12:02:05;;;;;;;20.60;15.80;;;;;;;8.62;100.00;99829.80;451518;1253;140295;-58
2024/02/29 12:12:12;;;;;;;19.70;15.10;;;;;;;8.56;100.00;99814.61;451755;1252;139465;-58
2024/02/29 12:22:19;;;;;;;20.20;15.60;;;;;;;8.49;100.00;99803.08;451632;1252;139690;-61
2024/02/29 12:32:25;;;;;;;18.80;14.90;;;;;;;8.67;100.00;99794.33;451611;1252;140050;-60
2024/02/29 12:42:33;;;;;;;19.20;14.00;;;;;;;8.73;100.00;99777.61;451655;1252;138858;-79
2024/02/29 12:52:39;;;;;;;19.60;15.00;;;;;;;8.81;100.00;99761.27;451565;1252;139891;-72
2024/02/29 13:02:45;;;;;;;18.10;15.30;;;;;;;8.84;100.00;99754.17;451614;1252;140005;-66
2024/02/29 13:12:51;;;;;;;17.60;13.90;;;;;;;8.91;100.00;99742.63;451685;1252;139546;-75
2024/02/29 13:23:08;;;;;;;21.20;15.50;;;;;;;8.95;100.00;99740.46;451598;1252;139500;-74
2024/02/29 13:33:16;;;;;;;19.90;16.30;;;;;;;8.88;100.00;99723.91;451771;1252;140313;-69
2024/02/29 13:43:22;;;;;;;23.90;17.00;;;;;;;8.88;100.00;99710.46;452005;1252;139451;-81
2024/02/29 13:53:28;;;;;;;23.50;16.90;;;;;;;8.92;100.00;99704.86;451560;1252;140002;-70
2024/02/29 14:03:35;;;;;;;21.50;18.10;;;;;;;8.88;100.00;99702.08;451641;1252;140452;-63
2024/02/29 14:13:41;;;;;;;25.80;18.40;;;;;;;8.89;100.00;99695.04;451689;1252;140508;-69
2024/02/29 14:23:47;;;;;;;23.70;18.20;;;;;;;8.91;100.00;99684.10;451740;1252;140061;-63
2024/02/29 14:33:53;;;;;;;25.70;17.70;;;;;;;8.90;100.00;99682.23;451596;1252;140619;-61
2024/02/29 14:44:03;;;;;;;26.30;20.20;;;;;;;8.90;100.00;99673.52;451766;1252;140206;-65
2024/02/29 14:54:09;;;;;;;25.50;17.50;;;;;;;8.84;100.00;99665.45;451681;1252;140249;-63
2024/02/29 15:04:15;;;;;;;23.00;18.50;;;;;;;8.83;100.00;99657.52;451701;1252;140481;-61
2024/02/29 15:14:21;;;;;;;29.50;19.60;;;;;;;8.80;100.00;99652.77;451461;1252;140194;-60
2024/02/29 15:24:29;;;;;;;29.20;20.50;;;;;;;8.82;100.00;99646.38;451799;1252;139857;-62
2024/02/29 15:34:35;;;;;;;28.60;18.50;;;;;;;8.82;100.00;99646.18;451586;1252;140371;-66
2024/02/29 15:44:41;;;;;;;28.80;19.90;;;;;;;8.79;100.00;99638.00;451577;1252;140553;-71
2024/02/29 15:54:47;;;;;;;30.50;20.60;;;;;;;8.74;100.00;99631.46;451807;1252;139783;-70
2024/02/29 16:04:53;;;;;;;30.10;20.00;;;;;;;8.68;100.00;99625.50;451696;1252;140727;-62
2024/02/29 16:14:59;;;;;;;37.40;22.60;;;;;;;8.68;100.00;99626.73;451496;1252;140053;-58
2024/02/29 16:25:06;;;;;;;39.50;23.60;;;;;;;8.66;100.00;99630.31;451674;1252;139792;-67
2024/02/29 16:35:13;;;;;;;42.30;26.30;;;;;;;8.59;100.00;99635.06;451592;1252;140313;-72
2024/02/29 16:45:22;;;;;;;37.70;24.50;;;;;;;8.45;100.00;99631.65;451533;1252;140810;-60
2024/02/29 16:55:28;;;;;;;35.70;25.90;;;;;;;8.35;100.00;99627.61;451602;1252;140089;-62
2024/02/29 17:05:35;;;;;;;38.80;25.20;;;;;;;8.30;100.00;99626.48;451797;1252;140717;-62
2024/02/29 17:15:43;;;;;;;41.90;28.10;;;;;;;8.26;100.00;99612.55;451724;1252;139651;-62
2024/02/29 17:25:49;;;;;;;41.20;27.00;;;;;;;8.21;100.00;99606.20;451688;1252;140127;-65
2024/02/29 17:35:57;;;;;;;38.20;24.30;;;;;;;8.17;100.00;99595.42;451830;1252;139762;-65
2024/02/29 17:46:03;;;;;;;35.30;24.10;;;;;;;8.13;100.00;99580.15;451661;1252;140248;-67
2024/02/29 17:56:09;;;;;;;40.50;26.90;;;;;;;8.00;100.00;99565.98;451830;1252;139318;-68
2024/02/29 18:06:15;;;;;;;40.50;27.80;;;;;;;7.86;100.00;99555.59;451768;1252;138419;-67
2024/02/29 18:16:23;;;;;;;36.70;23.30;;;;;;;7.73;100.00;99547.58;451679;1252;140426;-67
2024/02/29 18:26:29;;;;;;;36.90;26.00;;;;;;;7.63;100.00;99539.58;451767;1254;139457;-63
2024/02/29 18:36:39;;;;;;;43.50;30.70;;;;;;;7.54;100.00;99528.85;451859;1253;139368;-64
2024/02/29 18:46:45;;;;;;;41.30;29.00;;;;;;;7.41;100.00;99524.83;451498;1252;274078;-66
2024/02/29 18:56:51;;;;;;;41.10;25.40;;;;;;;7.30;100.00;99518.60;451678;1253;139232;-66
2024/02/29 19:06:57;;;;;;;39.80;27.90;;;;;;;7.24;100.00;99505.83;451855;1256;139357;-62
2024/02/29 19:17:03;;;;;;;41.60;29.10;;;;;;;7.20;100.00;99496.67;451764;1252;139842;-62
2024/02/29 19:27:11;;;;;;;41.30;27.30;;;;;;;7.13;100.00;99494.23;451751;1253;139541;-64
2024/02/29 19:37:17;;;;;;;41.20;29.00;;;;;;;7.14;100.00;99503.05;451660;1252;139256;-60
2024/02/29 19:47:25;;;;;;;41.30;30.20;;;;;;;7.19;100.00;99494.10;451629;1252;139958;-61
2024/02/29 19:57:32;;;;;;;44.80;31.10;;;;;;;7.32;100.00;99487.14;451470;1253;139772;-65
2024/02/29 20:07:38;;;;;;;45.90;31.10;;;;;;;7.46;100.00;99493.92;451553;1253;139496;-63
2024/02/29 20:17:43;;;;;;;43.90;28.50;;;;;;;7.61;100.00;99490.33;451720;1254;139910;-62
2024/02/29 20:27:56;;;;;;;45.20;29.80;;;;;;;7.74;100.00;99474.67;451778;1253;139210;-62
2024/02/29 20:38:02;;;;;;;47.00;30.20;;;;;;;7.78;100.00;99467.31;451796;1252;139816;-61
2024/02/29 20:48:10;;;;;;;45.70;30.60;;;;;;;7.57;100.00;99453.31;451805;1253;139557;-61
2024/02/29 20:58:17;;;;;;;45.80;30.70;;;;;;;7.34;100.00;99445.42;451622;1253;139294;-61
2024/02/29 21:08:24;;;;;;;46.30;31.40;;;;;;;7.17;100.00;99444.41;451646;1253;139742;-61
2024/02/29 21:18:30;;;;;;;45.80;31.50;;;;;;;7.05;100.00;99433.36;451867;1252;139163;-63
2024/02/29 21:28:37;;;;;;;42.40;28.90;;;;;;;6.93;100.00;99431.73;451713;1253;139393;-64
2024/02/29 21:38:44;;;;;;;49.10;34.00;;;;;;;6.81;100.00;99416.31;451765;1254;139356;-61
2024/02/29 21:48:51;;;;;;;47.60;31.80;;;;;;;6.71;100.00;99401.85;451911;1253;139224;-62
2024/02/29 21:58:57;;;;;;;51.80;34.30;;;;;;;6.66;100.00;99403.33;451701;1253;139609;-65
2024/02/29 22:09:03;;;;;;;49.00;31.20;;;;;;;6.62;100.00;99399.17;451791;1253;139245;-62
2024/02/29 22:19:09;;;;;;;47.70;32.00;;;;;;;6.56;100.00;99389.55;451802;1252;139369;-63
2024/02/29 22:29:14;;;;;;;53.80;33.20;;;;;;;6.55;100.00;99377.80;451781;1254;139516;-64
2024/02/29 22:39:20;;;;;;;58.80;37.10;;;;;;;6.58;100.00;99371.87;451694;1253;139473;-64
2024/02/29 22:49:28;;;;;;;63.20;38.20;;;;;;;6.67;100.00;99359.61;451850;1253;139304;-62
2024/02/29 22:59:34;;;;;;;56.50;36.50;;;;;;;6.80;100.00;99354.77;451843;1255;139170;-64
2024/02/29 23:09:40;;;;;;;63.30;38.60;;;;;;;6.92;100.00;99337.45;451719;1256;139259;-62
2024/02/29 23:19:46;;;;;;;66.80;39.90;;;;;;;6.99;100.00;99335.52;451779;1254;139451;-61
2024/02/29 23:29:52;;;;;;;58.20;36.50;;;;;;;7.06;100.00;99323.30;451861;1253;139384;-64
2024/02/29 23:39:58;;;;;;;71.50;38.50;;;;;;;7.12;100.00;99318.09;451751;1255;139607;-64
2024/02/29 23:50:05;;;;;;;62.80;39.30;;;;;;;7.19;100.00;99305.74;451747;1256;139717;-61
